| Record Date MM/DD/YYYY | Record Time HH:MM:SS | Record Julian Date NNN day of the year | Air Temperature Max (Degrees Fahrenheit F) | Time Max Air Temperature HH:MM:SS This is the time of max air temp for the prior hour interval listed for record [Time]. | Air Temperature Min (Degrees Fahrenheit F) | Time Min Air Temperature HH:MM:SS This is the time of min air temp for the prior hour interval listed for record [Time]. | Air Temperature Observed (Degrees Fahrenheit F) This is an instantaneous reading at the record [Time]. | Relative Humidity Max (Percent) | Time Max Relative Humidity HH:MM:SS This is the time of max relative humidity for the prior hour interval listed for record [Time]. | Relative Humidity Min (Percent) | Time Min Relative Humidity HH:MM:SS This is the time of min relative humidity for the prior hour interval listed for record [Time]. | Relative Humidity Observed (Percent) This is an instantaneous reading at the record [Time]. | Precipitation (Inches n.nn) rain fall that occurred during the prior hour interval listed for record [Time]. | Wind Speed (Miles Per Hour) Resultant Speed that occurred during the prior hour interval listed for record [Time]. | Wind Direction (Degrees) Resultant Direction that occurred during the prior hour interval listed for record [Time]. | Solar Radiation (Langley's) that occurred during the prior hour interval listed for record [Time]. | Soil Temperature Average at 2 inch depth (Degrees Fahrenheit F) that occurred during the prior hour interval listed for record [Time]. | Soil Temperature Observed at 2 inch depth (Degrees Fahrenheit F) This is an instantaneous reading at the record [Time]. | Soil Temperature Average at 4 inch depth (Degrees Fahrenheit F) that occurred during the prior hour interval listed for record [Time]. | Soil Temperature Observed at 4 inch depth (Degrees Fahrenheit F) This is an instantaneous reading at the record [Time]. |
|---|---|---|---|---|---|---|---|---|---|---|---|---|---|---|---|---|---|---|---|---|
| 04/30/2026 | 0:00:00 | 120 | 68 | 23:09:04 | 67 | 23:59:05 | 67 | 96 | 23:51:03 | 94 | 23:01:05 | 95.3 | 0.37 | 1.5 | 65 | 0 | 73 | 73 | 73 | 73 |
| 04/30/2026 | 1:00:00 | 120 | 67 | 0:04:02 | 67 | 0:44:03 | 67 | 97 | 0:31:04 | 95 | 0:00:00 | 96.3 | 0.08 | 3.5 | 121 | 0 | 73 | 73 | 73 | 72 |
| 04/30/2026 | 2:00:00 | 120 | 68 | 1:46:04 | 67 | 1:00:02 | 67 | 96 | 1:15:03 | 96 | 1:49:05 | 96 | 0 | 1.6 | 20 | 0 | 72 | 72 | 72 | 72 |
| 04/30/2026 | 3:00:00 | 120 | 68 | 2:31:01 | 67 | 2:02:02 | 67 | 96 | 2:13:05 | 96 | 2:36:01 | 96 | 0 | 1.6 | 349 | 0 | 72 | 72 | 72 | 72 |
| 04/30/2026 | 4:00:00 | 120 | 67 | 3:12:04 | 66 | 3:56:04 | 66 | 97 | 3:59:05 | 96 | 3:06:01 | 96.5 | 0 | 0.5 | 25 | 0 | 72 | 72 | 72 | 72 |
| 04/30/2026 | 5:00:00 | 120 | 67 | 4:45:05 | 66 | 4:00:01 | 67 | 97 | 4:27:02 | 96 | 4:01:02 | 96.7 | 0 | 1.0 | 88 | 0 | 71 | 71 | 71 | 71 |
| 04/30/2026 | 6:00:00 | 120 | 67 | 5:49:00 | 67 | 5:06:04 | 67 | 97 | 5:59:00 | 97 | 5:19:01 | 96.8 | 0.26 | 1.0 | 54 | 1 | 71 | 71 | 71 | 71 |
| 04/30/2026 | 7:00:00 | 120 | 68 | 6:54:00 | 67 | 6:20:05 | 68 | 97 | 6:29:00 | 97 | 6:06:01 | 96.9 | 0.01 | 1.2 | 51 | 1 | 71 | 71 | 71 | 71 |
| 04/30/2026 | 8:00:00 | 120 | 68 | 7:38:01 | 67 | 7:14:05 | 67 | 97 | 7:00:00 | 95 | 7:57:02 | 95.5 | 0.01 | 2.1 | 54 | 5 | 71 | 71 | 71 | 71 |
| 04/30/2026 | 9:00:00 | 120 | 68 | 8:54:04 | 67 | 8:39:01 | 68 | 96 | 8:14:04 | 93 | 9:00:00 | 93.4 | 0 | 1.7 | 20 | 9 | 72 | 72 | 71 | 71 |
| 04/30/2026 | 10:00:00 | 120 | 68 | 9:59:00 | 67 | 9:43:04 | 68 | 94 | 9:03:02 | 92 | 10:00:00 | 92 | 0 | 1.7 | 40 | 9 | 72 | 72 | 71 | 71 |
| 04/30/2026 | 11:00:00 | 120 | 68 | 10:10:04 | 67 | 10:53:01 | 67 | 93 | 10:59:00 | 91 | 10:22:05 | 92.6 | 0 | 2.2 | 39 | 13 | 73 | 73 | 71 | 71 |
| 04/30/2026 | 12:00:00 | 120 | 67 | 11:01:04 | 66 | 11:48:05 | 67 | 93 | 11:53:01 | 92 | 11:20:01 | 92.8 | 0 | 2.6 | 35 | 8 | 73 | 73 | 72 | 73 |
| 04/30/2026 | 13:00:00 | 120 | 68 | 12:38:01 | 66 | 12:11:05 | 67 | 93 | 12:19:04 | 89 | 12:45:00 | 90.5 | 0 | 2.6 | 51 | 16 | 73 | 73 | 73 | 73 |
| 04/30/2026 | 14:00:00 | 120 | 67 | 13:14:05 | 65 | 14:00:00 | 65 | 92 | 13:56:04 | 89 | 13:24:01 | 91.5 | 0 | 3.6 | 56 | 11 | 73 | 73 | 73 | 73 |
| 04/30/2026 | 15:00:00 | 120 | 66 | 14:40:03 | 65 | 14:04:03 | 66 | 92 | 14:54:03 | 91 | 14:26:05 | 92 | 0 | 2.2 | 53 | 6 | 73 | 72 | 72 | 72 |
| 04/30/2026 | 16:00:00 | 120 | 66 | 15:06:00 | 65 | 15:51:05 | 65 | 93 | 15:35:01 | 92 | 15:15:04 | 92.3 | 0 | 2.4 | 44 | 4 | 72 | 72 | 72 | 70 |
| 04/30/2026 | 17:00:00 | 120 | 65 | 16:22:03 | 65 | 16:58:05 | 65 | 94 | 17:00:00 | 92 | 16:25:03 | 94.1 | 0.15 | 1.2 | 338 | 1 | 72 | 71 | 71 | 71 |
| 04/30/2026 | 18:00:00 | 120 | 65 | 17:10:00 | 64 | 17:53:02 | 64 | 96 | 17:38:04 | 94 | 17:02:05 | 95.2 | 0.12 | 2.3 | 64 | 2 | 71 | 71 | 70 | 70 |
| 04/30/2026 | 19:00:00 | 120 | 64 | 18:15:04 | 64 | 18:59:05 | 64 | 95 | 18:01:00 | 94 | 18:46:00 | 93.9 | 0 | 2.4 | 41 | 1 | 71 | 70 | 70 | 72 |
| 04/30/2026 | 20:00:00 | 120 | 64 | 19:03:02 | 63 | 19:46:04 | 63 | 94 | 19:03:01 | 93 | 19:38:03 | 93.4 | 0 | 2.8 | 68 | 0 | 70 | 70 | 71 | 71 |
| 04/30/2026 | 21:00:00 | 120 | 63 | 20:00:01 | 63 | 20:46:04 | 63 | 94 | 20:58:01 | 93 | 20:02:00 | 94.1 | 0.01 | 2.2 | 72 | 0 | 69 | 69 | 70 | 70 |
| 04/30/2026 | 22:00:00 | 120 | 63 | 21:07:01 | 63 | 21:51:05 | 63 | 95 | 21:55:02 | 94 | 21:00:01 | 95.3 | 0 | 1.4 | 47 | 0 | 69 | 69 | 70 | 70 |
| 04/30/2026 | 23:00:00 | 120 | 63 | 22:01:05 | 63 | 22:41:01 | 63 | 96 | 22:36:01 | 95 | 22:58:05 | 95.3 | 0 | 2.8 | 95 | 0 | 69 | 68 | 70 | 69 |
| 05/01/2026 | 0:00:00 | 121 | 63 | 23:23:03 | 62 | 23:54:02 | 62 | 95 | 23:00:00 | 94 | 23:26:03 | 94.9 | 0.04 | 1.7 | 42 | 0 | 68 | 68 | 69 | 69 |
| 05/01/2026 | 1:00:00 | 121 | 63 | 0:05:05 | 62 | 0:58:00 | 62 | 96 | 0:55:00 | 95 | 0:00:02 | 95.8 | 0.02 | 1.7 | 74 | 0 | 68 | 68 | 69 | 69 |
| 05/01/2026 | 2:00:00 | 121 | 62 | 1:13:03 | 62 | 1:52:04 | 62 | 96 | 1:01:02 | 96 | 1:58:03 | 95.6 | 0.01 | 1.6 | 38 | 0 | 68 | 68 | 69 | 69 |
| 05/01/2026 | 3:00:00 | 121 | 62 | 2:00:01 | 61 | 2:51:00 | 61 | 96 | 2:01:04 | 95 | 2:43:01 | 95.1 | 0.02 | 1.5 | 12 | 0 | 68 | 67 | 68 | 69 |
| 05/01/2026 | 4:00:00 | 121 | 62 | 3:38:04 | 61 | 3:59:04 | 61 | 96 | 3:51:02 | 95 | 3:04:02 | 95.4 | 0.01 | 1.2 | 77 | 0 | 67 | 67 | 68 | 68 |
| 05/01/2026 | 5:00:00 | 121 | 61 | 4:00:05 | 61 | 4:16:02 | 61 | 96 | 4:01:02 | 95 | 4:29:04 | 95.4 | 0 | 1.9 | 46 | 0 | 67 | 67 | 68 | 67 |
| 05/01/2026 | 6:00:00 | 121 | 62 | 5:59:04 | 61 | 5:00:03 | 62 | 96 | 5:39:02 | 95 | 5:00:02 | 95.7 | 0 | 0.7 | 47 | 0 | 67 | 67 | 68 | 68 |
| 05/01/2026 | 7:00:00 | 121 | 62 | 6:08:00 | 61 | 6:59:01 | 61 | 96 | 6:13:00 | 95 | 6:41:03 | 95.4 | 0.03 | 1.4 | 27 | 1 | 67 | 67 | 68 | 68 |
| 05/01/2026 | 8:00:00 | 121 | 61 | 7:01:05 | 60 | 7:59:00 | 60 | 96 | 7:45:04 | 95 | 7:20:05 | 95.2 | 0.09 | 1.6 | 30 | 4 | 67 | 67 | 68 | 68 |
| 05/01/2026 | 9:00:00 | 121 | 61 | 8:18:04 | 60 | 8:37:03 | 60 | 96 | 8:03:04 | 94 | 8:40:02 | 94.1 | 0.03 | 2.4 | 28 | 6 | 67 | 67 | 68 | 68 |
| 05/01/2026 | 10:00:00 | 121 | 60 | 9:05:05 | 59 | 9:44:01 | 59 | 94 | 9:05:02 | 93 | 9:59:02 | 93.4 | 0.08 | 2.5 | 37 | 7 | 67 | 67 | 68 | 68 |
| 05/01/2026 | 11:00:00 | 121 | 60 | 10:03:02 | 59 | 10:59:00 | 59 | 94 | 10:10:04 | 92 | 10:59:00 | 92.6 | 0.04 | 2.8 | 50 | 9 | 67 | 67 | 68 | 68 |
| 05/01/2026 | 12:00:00 | 121 | 59 | 11:00:02 | 57 | 11:54:03 | 57 | 94 | 11:59:03 | 92 | 11:35:01 | 94 | 0.09 | 3.7 | 62 | 8 | 67 | 66 | 68 | 68 |
| 05/01/2026 | 13:00:00 | 121 | 58 | 12:02:01 | 56 | 12:54:05 | 56 | 95 | 12:15:02 | 93 | 12:58:03 | 93 | 0.06 | 3.8 | 47 | 7 | 66 | 66 | 68 | 67 |
| 05/01/2026 | 14:00:00 | 121 | 56 | 13:08:01 | 56 | 13:57:01 | 56 | 94 | 13:46:00 | 93 | 13:01:01 | 93.8 | 0.05 | 3.4 | 52 | 6 | 66 | 66 | 67 | 67 |
| 05/01/2026 | 15:00:00 | 121 | 56 | 14:00:02 | 54 | 15:00:00 | 54 | 95 | 14:52:04 | 93 | 14:26:00 | 94.6 | 0.16 | 4.0 | 68 | 2 | 65 | 65 | 66 | 66 |
| 05/01/2026 | 16:00:00 | 121 | 54 | 15:03:02 | 53 | 15:59:04 | 53 | 96 | 15:41:04 | 94 | 15:06:05 | 94.9 | 0.21 | 4.1 | 75 | 2 | 64 | 64 | 65 | 65 |
| 05/01/2026 | 17:00:00 | 121 | 54 | 16:38:05 | 53 | 16:12:04 | 53 | 96 | 16:38:04 | 95 | 16:05:04 | 95.1 | 0.19 | 4.6 | 92 | 1 | 63 | 63 | 64 | 64 |
| 05/01/2026 | 18:00:00 | 121 | 53 | 17:05:00 | 53 | 17:55:00 | 53 | 96 | 17:57:05 | 95 | 17:01:00 | 95.9 | 0.15 | 2.4 | 1 | 1 | 63 | 62 | 64 | 64 |
| 05/01/2026 | 19:00:00 | 121 | 53 | 18:02:04 | 53 | 18:58:02 | 53 | 96 | 18:48:02 | 96 | 18:10:04 | 96.2 | 0.06 | 2.1 | 356 | 0 | 62 | 62 | 64 | 64 |
| 05/01/2026 | 20:00:00 | 121 | 53 | 19:05:05 | 52 | 19:55:03 | 52 | 96 | 19:06:02 | 95 | 19:57:03 | 94.5 | 0.01 | 3.3 | 38 | 0 | 62 | 62 | 64 | 64 |
| 05/01/2026 | 21:00:00 | 121 | 52 | 20:38:00 | 52 | 20:02:01 | 52 | 95 | 20:00:00 | 94 | 20:34:04 | 94.2 | 0 | 2.6 | 65 | 0 | 61 | 61 | 64 | 64 |
| 05/01/2026 | 22:00:00 | 121 | 53 | 21:06:00 | 52 | 21:53:04 | 52 | 95 | 22:00:00 | 94 | 21:21:01 | 95.3 | 0.04 | 2.3 | 31 | 0 | 61 | 61 | 63 | 63 |
| 05/01/2026 | 23:00:00 | 121 | 52 | 22:24:01 | 52 | 22:10:01 | 52 | 96 | 22:23:05 | 94 | 22:53:04 | 94 | 0.06 | 2.1 | 31 | 0 | 61 | 61 | 63 | 63 |
| 05/02/2026 | 0:00:00 | 122 | 52 | 23:00:02 | 52 | 23:36:00 | 52 | 95 | 23:48:05 | 94 | 23:10:01 | 94.4 | 0.11 | 1.9 | 21 | 0 | 60 | 60 | 63 | 63 |
| 05/02/2026 | 1:00:00 | 122 | 53 | 0:58:01 | 52 | 0:09:01 | 53 | 95 | 0:09:04 | 94 | 0:34:00 | 94.4 | 0.01 | 1.8 | 58 | 0 | 60 | 60 | 62 | 62 |
| 05/02/2026 | 2:00:00 | 122 | 53 | 1:59:03 | 52 | 1:18:05 | 53 | 96 | 1:57:04 | 94 | 1:00:03 | 95.4 | 0 | 0.6 | 71 | 0 | 60 | 60 | 62 | 61 |
| 05/02/2026 | 3:00:00 | 122 | 53 | 2:42:05 | 53 | 2:18:01 | 53 | 96 | 3:00:00 | 95 | 2:03:02 | 96.3 | 0 | 0.4 | 339 | 0 | 60 | 60 | 62 | 62 |
| 05/02/2026 | 4:00:00 | 122 | 53 | 3:15:00 | 53 | 3:00:00 | 53 | 97 | 3:15:00 | 96 | 3:11:01 | 96.6 | 0 | 1.6 | 352 | 0 | 60 | 60 | 62 | 62 |
| 05/02/2026 | 5:00:00 | 122 | 54 | 4:51:03 | 53 | 4:04:05 | 53 | 97 | 4:54:04 | 96 | 4:04:05 | 96.7 | 0 | 0.8 | 342 | 0 | 60 | 60 | 62 | 62 |
| 05/02/2026 | 6:00:00 | 122 | 54 | 5:59:03 | 53 | 5:15:05 | 54 | 97 | 5:43:01 | 97 | 5:00:01 | 97.1 | 0 | 1.3 | 337 | 1 | 60 | 60 | 62 | 62 |
| 05/02/2026 | 7:00:00 | 122 | 56 | 6:54:02 | 54 | 6:00:00 | 56 | 97 | 6:02:01 | 94 | 7:00:00 | 93.6 | 0 | 1.9 | 329 | 12 | 60 | 60 | 62 | 62 |
| 05/02/2026 | 8:00:00 | 122 | 60 | 8:00:00 | 56 | 7:00:00 | 60 | 94 | 7:01:02 | 82 | 7:55:05 | 83.8 | 0 | 2.2 | 11 | 32 | 61 | 62 | 62 | 62 |
| 05/02/2026 | 9:00:00 | 122 | 64 | 8:47:04 | 60 | 8:04:00 | 63 | 84 | 8:05:03 | 72 | 8:58:00 | 74.21 | 0 | 2.7 | 31 | 49 | 64 | 66 | 63 | 64 |
| 05/02/2026 | 10:00:00 | 122 | 66 | 9:57:05 | 63 | 9:00:00 | 66 | 77 | 9:04:01 | 55 | 9:59:00 | 57.16 | 0 | 3.5 | 6 | 63 | 68 | 69 | 65 | 66 |
| 05/02/2026 | 11:00:00 | 122 | 68 | 10:59:05 | 66 | 10:00:00 | 68 | 61 | 10:03:04 | 40 | 10:46:05 | 44.67 | 0 | 5.0 | 35 | 74 | 71 | 72 | 67 | 68 |
| 05/02/2026 | 12:00:00 | 122 | 70 | 11:48:03 | 68 | 11:01:02 | 69 | 52 | 11:09:00 | 38 | 11:48:05 | 41.25 | 0 | 4.5 | 30 | 80 | 73 | 74 | 69 | 70 |
| 05/02/2026 | 13:00:00 | 122 | 71 | 12:50:01 | 69 | 12:04:04 | 70 | 49 | 12:30:03 | 34 | 12:58:02 | 35.44 | 0 | 4.8 | 30 | 81 | 75 | 75 | 70 | 71 |
| 05/02/2026 | 14:00:00 | 122 | 72 | 13:17:02 | 70 | 13:01:03 | 71 | 45 | 13:17:03 | 34 | 13:44:04 | 38.72 | 0 | 4.6 | 2 | 76 | 76 | 76 | 72 | 73 |
| 05/02/2026 | 15:00:00 | 122 | 72 | 14:36:04 | 71 | 14:15:02 | 72 | 46 | 14:51:05 | 36 | 14:25:03 | 40.99 | 0 | 4.0 | 6 | 67 | 77 | 77 | 73 | 73 |
| 05/02/2026 | 16:00:00 | 122 | 72 | 15:58:00 | 71 | 15:22:02 | 72 | 46 | 15:07:02 | 34 | 15:21:04 | 37.54 | 0 | 4.2 | 353 | 53 | 76 | 76 | 74 | 74 |
| 05/02/2026 | 17:00:00 | 122 | 72 | 16:30:05 | 71 | 16:39:00 | 71 | 45 | 16:01:05 | 36 | 16:31:02 | 37.79 | 0 | 3.6 | 4 | 34 | 75 | 75 | 74 | 74 |
| 05/02/2026 | 18:00:00 | 122 | 71 | 17:08:05 | 69 | 17:59:00 | 69 | 46 | 17:58:01 | 38 | 17:00:00 | 44.24 | 0 | 2.3 | 31 | 17 | 73 | 72 | 73 | 73 |
| 05/02/2026 | 19:00:00 | 122 | 69 | 18:01:02 | 59 | 18:53:04 | 59 | 77 | 18:53:01 | 44 | 18:05:02 | 76.41 | 0 | 0.7 | 11 | 3 | 71 | 70 | 72 | 72 |
| 05/02/2026 | 20:00:00 | 122 | 59 | 19:00:05 | 54 | 19:59:03 | 55 | 85 | 19:43:01 | 76 | 19:00:00 | 85 | 0 | 0.4 | 27 | 0 | 69 | 68 | 71 | 70 |
| 05/02/2026 | 21:00:00 | 122 | 55 | 20:03:02 | 53 | 20:57:01 | 53 | 90 | 21:00:00 | 85 | 20:00:01 | 89.9 | 0 | 0.4 | 25 | 0 | 67 | 67 | 70 | 69 |
| 05/02/2026 | 22:00:00 | 122 | 53 | 21:01:05 | 51 | 21:53:00 | 51 | 93 | 21:59:05 | 90 | 21:14:02 | 92.5 | 0 | 0.4 | 38 | 0 | 66 | 65 | 69 | 68 |
| 05/02/2026 | 23:00:00 | 122 | 51 | 22:19:00 | 51 | 22:56:02 | 51 | 95 | 22:59:02 | 93 | 22:00:00 | 94.8 | 0 | 0.1 | 50 | 0 | 65 | 64 | 67 | 67 |
| 05/03/2026 | 0:00:00 | 123 | 51 | 23:00:01 | 50 | 23:55:03 | 50 | 96 | 23:59:04 | 95 | 23:00:02 | 96.1 | 0 | 0.2 | 41 | 0 | 63 | 63 | 66 | 66 |
| 05/03/2026 | 1:00:00 | 123 | 50 | 0:16:05 | 49 | 0:51:02 | 49 | 97 | 0:54:02 | 96 | 0:00:02 | 96.7 | 0 | 0.2 | 34 | 0 | 62 | 62 | 66 | 65 |
| 05/03/2026 | 2:00:00 | 123 | 49 | 1:32:00 | 49 | 1:50:00 | 49 | 98 | 1:31:05 | 97 | 1:04:02 | 97.3 | 0 | 0.5 | 36 | 0 | 62 | 61 | 65 | 64 |
| 05/03/2026 | 3:00:00 | 123 | 49 | 2:00:00 | 48 | 2:41:04 | 48 | 98 | 2:58:01 | 97 | 2:03:00 | 97.8 | 0 | 0.2 | 47 | 0 | 61 | 60 | 64 | 64 |
| 05/03/2026 | 4:00:00 | 123 | 48 | 3:12:00 | 47 | 3:39:05 | 48 | 98 | 3:45:02 | 98 | 3:20:04 | 98.2 | 0 | 0.6 | 7 | 0 | 60 | 60 | 63 | 63 |
| 05/03/2026 | 5:00:00 | 123 | 48 | 4:00:05 | 47 | 4:59:02 | 47 | 99 | 4:56:00 | 98 | 4:08:00 | 98.1 | 0 | 0.3 | 28 | 0 | 59 | 59 | 63 | 62 |
| 05/03/2026 | 6:00:00 | 123 | 48 | 5:59:05 | 46 | 5:08:00 | 48 | 99 | 5:52:00 | 98 | 5:04:01 | 98.5 | 0 | 0.4 | 12 | 3 | 59 | 58 | 62 | 62 |
| 05/03/2026 | 7:00:00 | 123 | 55 | 7:00:00 | 48 | 6:03:02 | 55 | 99 | 6:09:03 | 93 | 6:56:03 | 94.2 | 0 | 0.4 | 93 | 19 | 59 | 59 | 61 | 61 |
| 05/03/2026 | 8:00:00 | 123 | 62 | 8:00:00 | 55 | 7:01:00 | 62 | 94 | 7:00:00 | 76 | 7:54:03 | 77.25 | 0 | 0.6 | 132 | 31 | 61 | 62 | 62 | 62 |
| 05/03/2026 | 9:00:00 | 123 | 68 | 8:59:05 | 62 | 8:00:00 | 68 | 77 | 8:00:01 | 64 | 8:58:04 | 64.91 | 0 | 1.9 | 204 | 49 | 64 | 66 | 63 | 64 |
| 05/03/2026 | 10:00:00 | 123 | 73 | 9:59:02 | 68 | 9:02:02 | 73 | 65 | 9:01:03 | 46 | 9:55:03 | 48.61 | 0 | 2.1 | 198 | 63 | 68 | 70 | 65 | 66 |
| 05/03/2026 | 11:00:00 | 123 | 75 | 10:56:00 | 72 | 10:08:04 | 74 | 57 | 10:25:05 | 43 | 10:59:03 | 46.55 | 0 | 2.3 | 221 | 74 | 72 | 74 | 68 | 69 |
| 05/03/2026 | 12:00:00 | 123 | 76 | 11:58:00 | 74 | 11:11:04 | 76 | 54 | 11:03:00 | 34 | 11:28:04 | 37.25 | 0 | 2.7 | 243 | 81 | 76 | 77 | 70 | 71 |
| 05/03/2026 | 13:00:00 | 123 | 77 | 12:49:00 | 75 | 12:08:05 | 77 | 50 | 12:50:00 | 34 | 12:28:03 | 39.89 | 0 | 3.2 | 257 | 81 | 78 | 79 | 72 | 72 |
| 05/03/2026 | 14:00:00 | 123 | 78 | 13:20:04 | 76 | 13:35:00 | 77 | 49 | 13:26:05 | 35 | 13:53:05 | 40.7 | 0 | 3.4 | 277 | 76 | 80 | 80 | 71 | 72 |
| 05/03/2026 | 15:00:00 | 123 | 78 | 15:00:00 | 76 | 14:02:05 | 78 | 47 | 14:13:04 | 35 | 14:01:05 | 41.83 | 0 | 2.9 | 276 | 66 | 81 | 81 | 74 | 74 |
| 05/03/2026 | 16:00:00 | 123 | 78 | 15:00:01 | 77 | 15:11:03 | 78 | 48 | 15:44:04 | 37 | 15:42:02 | 40.67 | 0 | 3.0 | 264 | 53 | 80 | 80 | 75 | 75 |
| 05/03/2026 | 17:00:00 | 123 | 79 | 16:28:04 | 77 | 16:14:00 | 78 | 48 | 16:07:00 | 37 | 16:43:04 | 45.57 | 0 | 2.1 | 235 | 33 | 79 | 79 | 74 | 74 |
| 05/03/2026 | 18:00:00 | 123 | 78 | 17:05:02 | 71 | 18:00:00 | 71 | 69 | 17:59:02 | 40 | 17:01:01 | 67.91 | 0 | 0.8 | 210 | 17 | 78 | 77 | 74 | 73 |
| 05/03/2026 | 19:00:00 | 123 | 71 | 18:00:00 | 63 | 18:59:05 | 63 | 86 | 18:56:02 | 66 | 18:00:04 | 83.9 | 0 | 0.4 | 28 | 3 | 76 | 74 | 73 | 72 |
| 05/03/2026 | 20:00:00 | 123 | 63 | 19:00:00 | 60 | 20:00:00 | 60 | 88 | 19:41:02 | 83 | 19:04:00 | 87 | 0 | 0.2 | 220 | 0 | 73 | 72 | 70 | 66 |
| 05/03/2026 | 21:00:00 | 123 | 60 | 20:00:01 | 57 | 20:58:03 | 57 | 91 | 20:59:04 | 87 | 20:00:00 | 90.4 | 0 | 0.2 | 26 | 0 | 71 | 70 | 70 | 72 |
| 05/03/2026 | 22:00:00 | 123 | 57 | 21:03:02 | 56 | 21:59:02 | 56 | 93 | 21:53:05 | 91 | 21:00:01 | 92.9 | 0 | 0.2 | 44 | 0 | 70 | 69 | 72 | 71 |
| 05/03/2026 | 23:00:00 | 123 | 56 | 22:25:00 | 55 | 22:59:01 | 55 | 95 | 22:58:03 | 93 | 22:00:02 | 94.5 | 0 | 0.3 | 31 | 0 | 68 | 67 | 70 | 70 |
| 05/04/2026 | 0:00:00 | 124 | 55 | 23:00:00 | 54 | 23:58:03 | 54 | 96 | 23:59:03 | 95 | 23:00:01 | 95.6 | 0 | 0.4 | 32 | 0 | 67 | 66 | 69 | 69 |
| 05/04/2026 | 1:00:00 | 124 | 54 | 0:02:04 | 53 | 0:48:00 | 54 | 97 | 0:55:01 | 96 | 0:00:03 | 96.3 | 0 | 0.3 | 3 | 0 | 66 | 65 | 68 | 68 |
| 05/04/2026 | 2:00:00 | 124 | 54 | 1:00:00 | 52 | 1:59:04 | 52 | 97 | 1:56:02 | 96 | 1:02:02 | 96.7 | 0 | 0.2 | 30 | 0 | 65 | 64 | 67 | 67 |
| 05/04/2026 | 3:00:00 | 124 | 53 | 2:08:02 | 52 | 2:59:03 | 52 | 97 | 2:55:00 | 97 | 2:00:04 | 97.2 | 0 | 0.1 | 40 | 0 | 64 | 63 | 67 | 66 |
| 05/04/2026 | 4:00:00 | 124 | 52 | 3:00:00 | 51 | 3:55:03 | 51 | 98 | 3:58:03 | 97 | 3:00:03 | 97.7 | 0 | 0.2 | 47 | 0 | 63 | 63 | 66 | 65 |
| 05/04/2026 | 5:00:00 | 124 | 51 | 4:00:02 | 50 | 4:54:00 | 50 | 98 | 4:59:04 | 98 | 4:11:04 | 98 | 0 | 0.1 | 42 | 0 | 62 | 62 | 65 | 65 |
| 05/04/2026 | 6:00:00 | 124 | 52 | 5:59:03 | 50 | 5:21:00 | 52 | 99 | 5:51:05 | 98 | 5:13:02 | 98.3 | 0 | 0.1 | 24 | 3 | 62 | 61 | 65 | 64 |
| 05/04/2026 | 7:00:00 | 124 | 59 | 6:59:05 | 52 | 6:00:01 | 59 | 99 | 6:25:00 | 92 | 6:56:04 | 92.6 | 0 | 0.2 | 35 | 17 | 62 | 62 | 64 | 64 |
| 05/04/2026 | 8:00:00 | 124 | 67 | 8:00:00 | 59 | 7:00:00 | 67 | 93 | 7:00:00 | 72 | 8:00:00 | 72.18 | 0 | 0.4 | 56 | 33 | 63 | 65 | 64 | 65 |
| 05/04/2026 | 9:00:00 | 124 | 72 | 8:59:04 | 67 | 8:00:00 | 72 | 73 | 8:03:03 | 60 | 8:59:02 | 60.72 | 0 | 1.6 | 199 | 49 | 67 | 69 | 65 | 66 |
| 05/04/2026 | 10:00:00 | 124 | 74 | 9:57:03 | 72 | 9:00:02 | 74 | 64 | 9:01:05 | 49 | 9:57:05 | 52.55 | 0 | 3.8 | 215 | 63 | 71 | 72 | 67 | 69 |
| 05/04/2026 | 11:00:00 | 124 | 76 | 10:52:00 | 74 | 10:03:00 | 76 | 55 | 10:40:02 | 42 | 10:48:02 | 48.79 | 0 | 4.2 | 221 | 74 | 74 | 75 | 70 | 71 |
| 05/04/2026 | 12:00:00 | 124 | 77 | 11:50:00 | 76 | 11:06:00 | 77 | 54 | 11:30:04 | 43 | 11:47:01 | 51.25 | 0 | 4.7 | 200 | 80 | 76 | 78 | 72 | 73 |
| 05/04/2026 | 13:00:00 | 124 | 78 | 12:47:00 | 76 | 12:10:02 | 78 | 52 | 12:13:02 | 41 | 12:55:02 | 45.31 | 0 | 4.6 | 200 | 79 | 78 | 79 | 73 | 74 |
| 05/04/2026 | 14:00:00 | 124 | 78 | 13:59:05 | 77 | 13:16:05 | 78 | 50 | 13:28:02 | 40 | 13:15:01 | 47.97 | 0 | 4.9 | 223 | 76 | 80 | 80 | 75 | 76 |
| 05/04/2026 | 15:00:00 | 124 | 79 | 14:55:00 | 77 | 14:13:01 | 78 | 50 | 14:00:03 | 41 | 14:30:01 | 44.36 | 0 | 4.8 | 229 | 65 | 80 | 80 | 76 | 76 |
| 05/04/2026 | 16:00:00 | 124 | 79 | 15:09:02 | 77 | 15:48:02 | 78 | 50 | 15:43:04 | 42 | 15:10:00 | 47.16 | 0 | 4.2 | 220 | 50 | 80 | 79 | 76 | 77 |
| 05/04/2026 | 17:00:00 | 124 | 78 | 16:04:02 | 77 | 16:31:03 | 78 | 51 | 16:48:05 | 45 | 16:08:03 | 48.8 | 0 | 3.6 | 208 | 32 | 79 | 78 | 76 | 76 |
| 05/04/2026 | 18:00:00 | 124 | 78 | 17:02:03 | 74 | 17:56:03 | 74 | 56 | 17:59:02 | 47 | 17:05:02 | 55.17 | 0 | 2.7 | 192 | 15 | 77 | 76 | 76 | 76 |
| 05/04/2026 | 19:00:00 | 124 | 74 | 18:00:02 | 67 | 18:59:05 | 67 | 81 | 19:00:00 | 55 | 18:00:00 | 80.6 | 0 | 0.5 | 146 | 3 | 75 | 74 | 75 | 75 |
| 05/04/2026 | 20:00:00 | 124 | 67 | 19:00:00 | 63 | 19:59:04 | 63 | 85 | 19:44:04 | 77 | 19:14:00 | 84.1 | 0 | 0.5 | 54 | 0 | 73 | 72 | 74 | 73 |
| 05/04/2026 | 21:00:00 | 124 | 63 | 20:27:04 | 62 | 20:59:05 | 62 | 86 | 20:03:03 | 82 | 21:00:00 | 82 | 0 | 0.3 | 47 | 0 | 72 | 71 | 73 | 72 |
| 05/04/2026 | 22:00:00 | 124 | 62 | 21:00:02 | 61 | 21:59:02 | 61 | 86 | 21:56:01 | 82 | 21:25:01 | 85.3 | 0 | 0.1 | 201 | 0 | 70 | 70 | 72 | 71 |
| 05/04/2026 | 23:00:00 | 124 | 61 | 22:06:05 | 59 | 22:59:03 | 60 | 88 | 23:00:00 | 84 | 22:29:04 | 87.5 | 0 | 0.3 | 65 | 0 | 69 | 69 | 71 | 70 |
| 05/05/2026 | 0:00:00 | 125 | 60 | 23:00:00 | 59 | 23:59:03 | 59 | 90 | 23:32:02 | 87 | 23:01:03 | 89.8 | 0 | 0.4 | 60 | 0 | 68 | 68 | 70 | 70 |
| 05/05/2026 | 1:00:00 | 125 | 59 | 0:00:00 | 57 | 0:46:01 | 58 | 92 | 0:55:01 | 90 | 0:00:04 | 92 | 0 | 0.2 | 35 | 0 | 67 | 67 | 69 | 69 |
| 05/05/2026 | 2:00:00 | 125 | 59 | 1:12:05 | 58 | 1:00:00 | 59 | 92 | 1:00:01 | 89 | 1:15:01 | 90.4 | 0 | 0.8 | 63 | 0 | 66 | 66 | 69 | 68 |
| 05/05/2026 | 3:00:00 | 125 | 59 | 2:03:04 | 57 | 2:51:02 | 58 | 93 | 2:59:05 | 89 | 2:16:04 | 93.1 | 0 | 0.5 | 348 | 0 | 66 | 66 | 68 | 68 |
| 05/05/2026 | 4:00:00 | 125 | 58 | 3:55:00 | 57 | 3:23:02 | 58 | 94 | 3:49:03 | 92 | 3:07:00 | 93.2 | 0 | 0.3 | 348 | 0 | 65 | 65 | 67 | 67 |
| 05/05/2026 | 5:00:00 | 125 | 59 | 4:39:02 | 58 | 4:10:01 | 59 | 94 | 4:26:03 | 92 | 4:47:03 | 92.8 | 0 | 0.4 | 53 | 0 | 65 | 65 | 67 | 67 |
| 05/05/2026 | 6:00:00 | 125 | 62 | 5:58:05 | 59 | 5:03:00 | 62 | 93 | 5:15:04 | 88 | 5:59:05 | 87.6 | 0 | 0.5 | 195 | 1 | 65 | 65 | 67 | 66 |
| 05/05/2026 | 7:00:00 | 125 | 66 | 7:00:00 | 62 | 6:00:00 | 66 | 88 | 6:06:05 | 81 | 6:59:01 | 80.8 | 0 | 1.6 | 156 | 7 | 65 | 65 | 66 | 66 |
| 05/05/2026 | 8:00:00 | 125 | 69 | 7:59:05 | 66 | 7:00:01 | 69 | 81 | 7:01:03 | 77 | 7:37:00 | 77.55 | 0 | 3.3 | 150 | 17 | 66 | 67 | 67 | 67 |
| 05/05/2026 | 9:00:00 | 125 | 76 | 8:57:05 | 69 | 8:00:01 | 75 | 78 | 8:02:03 | 70 | 8:59:05 | 69.76 | 0 | 4.4 | 164 | 40 | 68 | 70 | 67 | 68 |
| 05/05/2026 | 10:00:00 | 125 | 79 | 9:55:05 | 75 | 9:00:05 | 78 | 72 | 9:02:01 | 65 | 9:56:05 | 67.46 | 0 | 4.7 | 188 | 55 | 71 | 73 | 69 | 70 |
| 05/05/2026 | 11:00:00 | 125 | 80 | 10:28:01 | 78 | 10:00:04 | 79 | 70 | 10:06:05 | 64 | 10:37:01 | 67.99 | 0 | 5.1 | 187 | 56 | 75 | 76 | 70 | 72 |
| 05/05/2026 | 12:00:00 | 125 | 79 | 11:05:01 | 78 | 11:55:00 | 78 | 70 | 11:59:00 | 66 | 11:06:03 | 69.18 | 0 | 4.1 | 187 | 29 | 76 | 76 | 72 | 73 |
| 05/05/2026 | 13:00:00 | 125 | 80 | 12:12:04 | 78 | 12:59:00 | 78 | 72 | 12:59:03 | 66 | 12:15:05 | 71.38 | 0 | 3.5 | 175 | 24 | 76 | 76 | 73 | 73 |
| 05/05/2026 | 14:00:00 | 125 | 78 | 13:27:01 | 78 | 13:00:01 | 78 | 73 | 13:59:05 | 70 | 13:07:04 | 72.48 | 0 | 3.1 | 158 | 16 | 76 | 75 | 73 | 74 |
| 05/05/2026 | 15:00:00 | 125 | 79 | 14:32:05 | 78 | 14:55:01 | 78 | 74 | 14:53:00 | 71 | 14:23:01 | 74.08 | 0 | 3.1 | 170 | 14 | 75 | 75 | 74 | 74 |
| 05/05/2026 | 16:00:00 | 125 | 78 | 15:40:03 | 77 | 15:30:05 | 78 | 76 | 15:59:03 | 73 | 15:13:01 | 75.68 | 0 | 2.4 | 166 | 11 | 75 | 75 | 74 | 74 |
| 05/05/2026 | 17:00:00 | 125 | 78 | 16:29:05 | 77 | 16:09:00 | 78 | 76 | 16:57:04 | 74 | 16:33:02 | 75.79 | 0 | 2.8 | 157 | 11 | 75 | 75 | 74 | 74 |
| 05/05/2026 | 18:00:00 | 125 | 78 | 17:02:05 | 77 | 17:59:00 | 77 | 79 | 17:48:05 | 76 | 17:06:00 | 77.78 | 0 | 2.2 | 166 | 5 | 75 | 75 | 74 | 74 |
| 05/05/2026 | 19:00:00 | 125 | 77 | 18:03:02 | 76 | 18:50:05 | 76 | 79 | 18:42:04 | 77 | 18:02:03 | 78.71 | 0 | 2.2 | 170 | 1 | 75 | 74 | 74 | 73 |
| 05/05/2026 | 20:00:00 | 125 | 77 | 19:08:01 | 76 | 19:52:00 | 76 | 79 | 19:51:04 | 78 | 19:33:05 | 79.13 | 0 | 3.2 | 168 | 0 | 74 | 73 | 73 | 73 |
| 05/05/2026 | 21:00:00 | 125 | 76 | 20:02:03 | 75 | 20:59:05 | 75 | 81 | 20:49:04 | 79 | 20:01:00 | 80.4 | 0 | 2.7 | 164 | 0 | 73 | 73 | 73 | 73 |
| 05/05/2026 | 22:00:00 | 125 | 75 | 21:02:01 | 75 | 21:35:05 | 75 | 82 | 21:41:01 | 80 | 21:07:05 | 81.4 | 0 | 3.0 | 170 | 0 | 73 | 73 | 73 | 72 |
| 05/05/2026 | 23:00:00 | 125 | 75 | 22:00:04 | 73 | 22:59:05 | 73 | 85 | 22:59:05 | 81 | 22:00:02 | 84.7 | 0 | 2.9 | 177 | 0 | 72 | 72 | 72 | 72 |
| 05/06/2026 | 0:00:00 | 126 | 73 | 23:00:00 | 72 | 23:36:05 | 72 | 89 | 23:47:04 | 85 | 23:00:00 | 88.3 | 0 | 1.9 | 182 | 0 | 72 | 72 | 72 | 72 |
| 05/06/2026 | 1:00:00 | 126 | 73 | 0:40:02 | 72 | 0:00:02 | 73 | 88 | 0:00:01 | 86 | 0:55:02 | 85.9 | 0 | 2.5 | 176 | 0 | 72 | 72 | 72 | 72 |
| 05/06/2026 | 2:00:00 | 126 | 73 | 1:45:01 | 72 | 1:16:02 | 73 | 86 | 1:01:04 | 84 | 1:44:01 | 84.6 | 0 | 3.3 | 178 | 0 | 71 | 71 | 72 | 71 |
| 05/06/2026 | 3:00:00 | 126 | 73 | 2:05:01 | 73 | 2:45:04 | 73 | 87 | 2:59:00 | 85 | 2:10:03 | 86.7 | 0 | 2.0 | 198 | 0 | 71 | 71 | 71 | 71 |
| 05/06/2026 | 4:00:00 | 126 | 73 | 3:00:01 | 71 | 3:58:02 | 71 | 92 | 3:59:05 | 87 | 3:00:01 | 91.5 | 0 | 1.1 | 177 | 0 | 71 | 71 | 71 | 71 |
| 05/06/2026 | 5:00:00 | 126 | 72 | 4:37:03 | 71 | 4:01:00 | 72 | 93 | 5:00:00 | 92 | 4:00:01 | 92.6 | 0 | 0.5 | 192 | 0 | 71 | 71 | 71 | 71 |
| 05/06/2026 | 6:00:00 | 126 | 72 | 5:57:05 | 71 | 5:15:02 | 72 | 94 | 5:56:03 | 93 | 5:00:01 | 94 | 0 | 0.2 | 85 | 0 | 71 | 71 | 71 | 71 |
| 05/06/2026 | 7:00:00 | 126 | 74 | 6:59:05 | 72 | 6:00:00 | 74 | 94 | 6:07:01 | 92 | 6:58:05 | 92.2 | 0 | 0.3 | 130 | 3 | 71 | 71 | 71 | 71 |
| 05/06/2026 | 8:00:00 | 126 | 76 | 7:57:03 | 74 | 7:00:00 | 76 | 92 | 7:00:01 | 87 | 7:58:04 | 87 | 0 | 0.3 | 149 | 8 | 72 | 72 | 71 | 71 |
| 05/06/2026 | 9:00:00 | 126 | 78 | 8:41:04 | 76 | 8:00:02 | 77 | 87 | 8:02:05 | 84 | 8:42:04 | 85.1 | 0 | 1.9 | 190 | 13 | 73 | 73 | 72 | 72 |
| 05/06/2026 | 10:00:00 | 126 | 79 | 9:59:02 | 77 | 9:03:01 | 79 | 86 | 9:52:05 | 84 | 9:59:05 | 83.7 | 0 | 2.0 | 197 | 12 | 74 | 74 | 72 | 72 |
| 05/06/2026 | 11:00:00 | 126 | 79 | 10:00:00 | 77 | 10:32:00 | 78 | 91 | 10:38:05 | 83 | 10:03:03 | 89.7 | 0 | 2.4 | 182 | 15 | 74 | 75 | 73 | 73 |
| 05/06/2026 | 12:00:00 | 126 | 82 | 12:00:00 | 78 | 11:00:00 | 82 | 90 | 11:01:03 | 81 | 11:55:01 | 81.1 | 0 | 2.9 | 183 | 38 | 76 | 77 | 73 | 74 |
| 05/06/2026 | 13:00:00 | 126 | 82 | 12:01:00 | 80 | 12:45:05 | 82 | 82 | 12:47:01 | 79 | 12:58:05 | 79.91 | 0 | 2.9 | 183 | 24 | 78 | 78 | 74 | 75 |
| 05/06/2026 | 14:00:00 | 126 | 82 | 13:00:01 | 78 | 13:58:01 | 78 | 89 | 13:59:01 | 79 | 13:02:00 | 89.1 | 0.01 | 1.2 | 172 | 6 | 78 | 78 | 75 | 75 |
| 05/06/2026 | 15:00:00 | 126 | 78 | 14:00:00 | 77 | 14:46:00 | 77 | 93 | 14:49:02 | 89 | 14:00:00 | 93.1 | 0.01 | 0.9 | 44 | 5 | 77 | 77 | 75 | 75 |
| 05/06/2026 | 16:00:00 | 126 | 79 | 15:43:04 | 77 | 15:00:01 | 79 | 94 | 15:09:01 | 88 | 15:50:04 | 88.4 | 0 | 0.9 | 179 | 12 | 77 | 77 | 75 | 75 |
| 05/06/2026 | 17:00:00 | 126 | 79 | 16:02:03 | 77 | 16:57:03 | 77 | 93 | 16:59:00 | 88 | 16:00:03 | 93.2 | 0 | 1.7 | 355 | 3 | 77 | 77 | 75 | 76 |
| 05/06/2026 | 18:00:00 | 126 | 77 | 17:25:01 | 72 | 17:41:03 | 73 | 95 | 17:59:05 | 89 | 17:28:04 | 95.1 | 0.72 | 6.0 | 330 | 0 | 76 | 76 | 75 | 75 |
| 05/06/2026 | 19:00:00 | 126 | 73 | 18:59:04 | 73 | 18:22:05 | 73 | 96 | 18:58:02 | 95 | 18:00:02 | 96.3 | 0.06 | 1.1 | 23 | 0 | 75 | 75 | 75 | 75 |
| 05/06/2026 | 20:00:00 | 126 | 73 | 19:21:03 | 73 | 19:09:01 | 73 | 97 | 19:58:00 | 96 | 19:02:01 | 97.3 | 0.09 | 0.7 | 55 | 0 | 75 | 75 | 74 | 74 |
| 05/06/2026 | 21:00:00 | 126 | 73 | 20:04:05 | 68 | 20:59:05 | 68 | 97 | 20:03:03 | 96 | 20:19:04 | 96.5 | 0.58 | 3.8 | 308 | 0 | 74 | 74 | 74 | 74 |
| 05/06/2026 | 22:00:00 | 126 | 68 | 21:00:00 | 64 | 21:54:00 | 64 | 97 | 21:56:04 | 96 | 21:08:00 | 96.6 | 0.06 | 2.5 | 328 | 0 | 73 | 73 | 74 | 73 |
| 05/06/2026 | 23:00:00 | 126 | 64 | 22:00:02 | 62 | 22:57:00 | 62 | 97 | 22:14:00 | 96 | 22:29:01 | 96.4 | 0.07 | 1.9 | 360 | 0 | 72 | 72 | 73 | 71 |
| 05/07/2026 | 0:00:00 | 127 | 63 | 23:11:01 | 61 | 23:58:05 | 61 | 97 | 23:09:00 | 96 | 23:47:02 | 96.1 | 0.02 | 2.1 | 319 | 0 | 71 | 71 | 72 | 72 |
| 05/07/2026 | 1:00:00 | 127 | 61 | 0:00:02 | 60 | 0:50:01 | 60 | 96 | 0:07:00 | 95 | 0:27:04 | 95.7 | 0 | 2.2 | 328 | 0 | 70 | 70 | 71 | 70 |
| 05/07/2026 | 2:00:00 | 127 | 60 | 1:00:00 | 59 | 1:54:02 | 60 | 96 | 1:03:01 | 95 | 1:31:04 | 95.1 | 0 | 1.7 | 350 | 0 | 69 | 69 | 70 | 71 |
| 05/07/2026 | 3:00:00 | 127 | 60 | 2:02:05 | 59 | 2:50:03 | 59 | 96 | 2:57:01 | 95 | 2:04:04 | 95.7 | 0 | 1.7 | 343 | 0 | 69 | 68 | 70 | 70 |
| 05/07/2026 | 4:00:00 | 127 | 59 | 3:00:02 | 58 | 3:58:03 | 58 | 96 | 3:04:02 | 95 | 3:58:05 | 94.7 | 0 | 2.5 | 336 | 0 | 68 | 68 | 70 | 69 |
| Average | 65.91 | 64.09 | 64.98 | 85.66 | 80.72 | 83.15 | 0.02 | 2 | 14.43 | 69.76 | 69.73 | 69.58 | 69.58 | |||||||
| Total | 4.2 |